Terminal Aerodrome Forecast
Issued by NWS

Home | Current Version | Previous Version | Text Only | Print | Product List | Glossary On
Versions: 1 2 3 4 5 6 7 8 9 10 11 12 13 14 15
000
FTUS43 KFGF 061721
TAFDVL
TAF
KDVL 061721Z 0618/0718 36020G28KT P6SM FEW120
     FM070100 36014G22KT P6SM FEW250
     FM070300 VRB06KT P6SM FEW250=

USA.gov is the U.S. government's official web portal to all federal, state and local government web resources and services.